sensor_id;sensor_type;location;lat;lon;timestamp;pressure;altitude;pressure_sealevel;temperature
80422;BMP280;69763;50.182;9.144;2023-11-22T00:02:05;100683.34;;;0.71
80422;BMP280;69763;50.182;9.144;2023-11-22T00:04:30;100693.28;;;0.58
80422;BMP280;69763;50.182;9.144;2023-11-22T00:06:55;100689.28;;;0.50
80422;BMP280;69763;50.182;9.144;2023-11-22T00:09:21;100699.97;;;0.50
80422;BMP280;69763;50.182;9.144;2023-11-22T00:11:48;100701.03;;;0.53
80422;BMP280;69763;50.182;9.144;2023-11-22T00:14:13;100696.22;;;0.48
80422;BMP280;69763;50.182;9.144;2023-11-22T00:16:38;100704.31;;;0.44
80422;BMP280;69763;50.182;9.144;2023-11-22T00:19:04;100702.56;;;0.37
80422;BMP280;69763;50.182;9.144;2023-11-22T00:21:29;100701.97;;;0.30
80422;BMP280;69763;50.182;9.144;2023-11-22T00:23:54;100709.50;;;0.19
80422;BMP280;69763;50.182;9.144;2023-11-22T00:26:20;100715.28;;;0.17
80422;BMP280;69763;50.182;9.144;2023-11-22T00:28:47;100718.84;;;0.11
80422;BMP280;69763;50.182;9.144;2023-11-22T00:31:12;100717.47;;;0.06
80422;BMP280;69763;50.182;9.144;2023-11-22T00:33:37;100722.53;;;0.00
80422;BMP280;69763;50.182;9.144;2023-11-22T00:36:03;100731.38;;;-0.03
80422;BMP280;69763;50.182;9.144;2023-11-22T00:38:29;100737.53;;;-0.06
80422;BMP280;69763;50.182;9.144;2023-11-22T00:40:54;100730.34;;;-0.09
80422;BMP280;69763;50.182;9.144;2023-11-22T00:43:19;100735.34;;;-0.11
80422;BMP280;69763;50.182;9.144;2023-11-22T00:45:46;100750.94;;;-0.09
80422;BMP280;69763;50.182;9.144;2023-11-22T00:48:12;100747.94;;;-0.11
80422;BMP280;69763;50.182;9.144;2023-11-22T00:50:37;100748.03;;;-0.15
80422;BMP280;69763;50.182;9.144;2023-11-22T00:53:02;100755.59;;;-0.13
80422;BMP280;69763;50.182;9.144;2023-11-22T00:55:28;100753.44;;;-0.18
80422;BMP280;69763;50.182;9.144;2023-11-22T00:57:53;100760.84;;;-0.26
80422;BMP280;69763;50.182;9.144;2023-11-22T01:00:18;100768.56;;;-0.32
80422;BMP280;69763;50.182;9.144;2023-11-22T01:02:45;100769.44;;;-0.38
80422;BMP280;69763;50.182;9.144;2023-11-22T01:05:10;100761.94;;;-0.43
80422;BMP280;69763;50.182;9.144;2023-11-22T01:07:36;100766.69;;;-0.51
80422;BMP280;69763;50.182;9.144;2023-11-22T01:10:01;100766.34;;;-0.53
80422;BMP280;69763;50.182;9.144;2023-11-22T01:12:27;100771.06;;;-0.60
80422;BMP280;69763;50.182;9.144;2023-11-22T01:14:52;100770.47;;;-0.68
80422;BMP280;69763;50.182;9.144;2023-11-22T01:17:17;100764.75;;;-0.67
80422;BMP280;69763;50.182;9.144;2023-11-22T01:19:44;100755.31;;;-0.71
80422;BMP280;69763;50.182;9.144;2023-11-22T01:22:09;100751.91;;;-0.72
80422;BMP280;69763;50.182;9.144;2023-11-22T01:24:35;100748.03;;;-0.67
80422;BMP280;69763;50.182;9.144;2023-11-22T01:27:00;100750.44;;;-0.56
80422;BMP280;69763;50.182;9.144;2023-11-22T01:29:26;100741.50;;;-0.46
80422;BMP280;69763;50.182;9.144;2023-11-22T01:31:51;100750.13;;;-0.42
80422;BMP280;69763;50.182;9.144;2023-11-22T01:34:16;100761.28;;;-0.47
80422;BMP280;69763;50.182;9.144;2023-11-22T01:36:43;100764.38;;;-0.49
80422;BMP280;69763;50.182;9.144;2023-11-22T01:39:10;100761.44;;;-0.54
80422;BMP280;69763;50.182;9.144;2023-11-22T01:41:36;100760.06;;;-0.62
80422;BMP280;69763;50.182;9.144;2023-11-22T01:44:01;100752.31;;;-0.73
80422;BMP280;69763;50.182;9.144;2023-11-22T01:46:27;100757.78;;;-0.80
80422;BMP280;69763;50.182;9.144;2023-11-22T01:48:53;100759.34;;;-0.83
80422;BMP280;69763;50.182;9.144;2023-11-22T01:51:20;100767.13;;;-0.92
80422;BMP280;69763;50.182;9.144;2023-11-22T01:53:47;100779.16;;;-1.04
80422;BMP280;69763;50.182;9.144;2023-11-22T01:56:13;100783.16;;;-1.15
80422;BMP280;69763;50.182;9.144;2023-11-22T01:58:39;100801.84;;;-1.19
80422;BMP280;69763;50.182;9.144;2023-11-22T02:01:04;100792.06;;;-1.25
80422;BMP280;69763;50.182;9.144;2023-11-22T02:03:29;100786.69;;;-1.22
80422;BMP280;69763;50.182;9.144;2023-11-22T02:05:55;100790.38;;;-1.16
80422;BMP280;69763;50.182;9.144;2023-11-22T02:08:20;100788.69;;;-1.06
80422;BMP280;69763;50.182;9.144;2023-11-22T02:10:57;100803.97;;;-0.90
80422;BMP280;69763;50.182;9.144;2023-11-22T02:13:22;100814.91;;;-0.85
80422;BMP280;69763;50.182;9.144;2023-11-22T02:15:48;100814.63;;;-0.90
80422;BMP280;69763;50.182;9.144;2023-11-22T02:18:13;100822.13;;;-1.05
80422;BMP280;69763;50.182;9.144;2023-11-22T02:20:39;100818.25;;;-1.24
80422;BMP280;69763;50.182;9.144;2023-11-22T02:23:09;100826.41;;;-1.35
80422;BMP280;69763;50.182;9.144;2023-11-22T02:25:35;100827.97;;;-1.37
80422;BMP280;69763;50.182;9.144;2023-11-22T02:28:00;100840.97;;;-1.43
80422;BMP280;69763;50.182;9.144;2023-11-22T02:30:25;100838.16;;;-1.32
80422;BMP280;69763;50.182;9.144;2023-11-22T02:32:51;100830.91;;;-1.32
80422;BMP280;69763;50.182;9.144;2023-11-22T02:35:16;100829.47;;;-1.36
80422;BMP280;69763;50.182;9.144;2023-11-22T02:37:42;100824.31;;;-1.47
80422;BMP280;69763;50.182;9.144;2023-11-22T02:40:16;100829.41;;;-1.56
80422;BMP280;69763;50.182;9.144;2023-11-22T02:42:41;100826.50;;;-1.65
80422;BMP280;69763;50.182;9.144;2023-11-22T02:45:08;100834.66;;;-1.76
80422;BMP280;69763;50.182;9.144;2023-11-22T02:47:33;100833.69;;;-1.89
80422;BMP280;69763;50.182;9.144;2023-11-22T02:49:59;100828.47;;;-1.96
80422;BMP280;69763;50.182;9.144;2023-11-22T02:52:24;100823.22;;;-2.00
80422;BMP280;69763;50.182;9.144;2023-11-22T02:54:49;100816.59;;;-1.88
80422;BMP280;69763;50.182;9.144;2023-11-22T02:57:16;100828.19;;;-1.75
80422;BMP280;69763;50.182;9.144;2023-11-22T02:59:42;100816.69;;;-1.68
80422;BMP280;69763;50.182;9.144;2023-11-22T03:02:07;100814.66;;;-1.60
80422;BMP280;69763;50.182;9.144;2023-11-22T03:04:32;100814.25;;;-1.59
80422;BMP280;69763;50.182;9.144;2023-11-22T03:06:58;100810.75;;;-1.76
80422;BMP280;69763;50.182;9.144;2023-11-22T03:09:23;100813.34;;;-1.99
80422;BMP280;69763;50.182;9.144;2023-11-22T03:11:49;100817.75;;;-1.89
80422;BMP280;69763;50.182;9.144;2023-11-22T03:14:16;100822.75;;;-1.94
80422;BMP280;69763;50.182;9.144;2023-11-22T03:16:41;100832.88;;;-2.13
80422;BMP280;69763;50.182;9.144;2023-11-22T03:19:07;100833.19;;;-2.07
80422;BMP280;69763;50.182;9.144;2023-11-22T03:21:32;100836.16;;;-2.02
80422;BMP280;69763;50.182;9.144;2023-11-22T03:23:57;100840.25;;;-1.97
80422;BMP280;69763;50.182;9.144;2023-11-22T03:26:23;100841.38;;;-1.94
80422;BMP280;69763;50.182;9.144;2023-11-22T03:28:48;100841.69;;;-2.19
80422;BMP280;69763;50.182;9.144;2023-11-22T03:31:15;100842.22;;;-2.35
80422;BMP280;69763;50.182;9.144;2023-11-22T03:33:40;100852.25;;;-2.50
80422;BMP280;69763;50.182;9.144;2023-11-22T03:36:06;100856.56;;;-2.59
80422;BMP280;69763;50.182;9.144;2023-11-22T03:38:32;100855.19;;;-2.75
80422;BMP280;69763;50.182;9.144;2023-11-22T03:40:57;100853.00;;;-2.87
80422;BMP280;69763;50.182;9.144;2023-11-22T03:43:23;100861.81;;;-2.97
80422;BMP280;69763;50.182;9.144;2023-11-22T03:45:48;100859.28;;;-3.08
80422;BMP280;69763;50.182;9.144;2023-11-22T03:48:15;100871.47;;;-3.14
80422;BMP280;69763;50.182;9.144;2023-11-22T03:50:40;100865.41;;;-3.18
80422;BMP280;69763;50.182;9.144;2023-11-22T03:53:05;100878.72;;;-3.25
80422;BMP280;69763;50.182;9.144;2023-11-22T03:55:31;100882.94;;;-3.31
80422;BMP280;69763;50.182;9.144;2023-11-22T03:57:56;100884.78;;;-3.21
80422;BMP280;69763;50.182;9.144;2023-11-22T04:00:21;100896.16;;;-3.24
80422;BMP280;69763;50.182;9.144;2023-11-22T04:02:47;100903.63;;;-3.08
80422;BMP280;69763;50.182;9.144;2023-11-22T04:05:14;100912.94;;;-2.93
80422;BMP280;69763;50.182;9.144;2023-11-22T04:07:39;100915.50;;;-2.79
80422;BMP280;69763;50.182;9.144;2023-11-22T04:10:05;100928.28;;;-2.67
80422;BMP280;69763;50.182;9.144;2023-11-22T04:12:30;100937.28;;;-2.53
80422;BMP280;69763;50.182;9.144;2023-11-22T04:14:56;100937.66;;;-2.55
80422;BMP280;69763;50.182;9.144;2023-11-22T04:17:21;100947.69;;;-2.36
80422;BMP280;69763;50.182;9.144;2023-11-22T04:19:46;100956.28;;;-2.17
80422;BMP280;69763;50.182;9.144;2023-11-22T04:22:13;100957.75;;;-2.13
80422;BMP280;69763;50.182;9.144;2023-11-22T04:24:38;100971.28;;;-2.00
80422;BMP280;69763;50.182;9.144;2023-11-22T04:27:04;100971.50;;;-1.87
80422;BMP280;69763;50.182;9.144;2023-11-22T04:29:29;100977.44;;;-1.76
80422;BMP280;69763;50.182;9.144;2023-11-22T04:31:55;100984.13;;;-1.64
80422;BMP280;69763;50.182;9.144;2023-11-22T04:34:20;100985.59;;;-1.60
80422;BMP280;69763;50.182;9.144;2023-11-22T04:36:45;101002.28;;;-1.59
80422;BMP280;69763;50.182;9.144;2023-11-22T04:39:12;100998.47;;;-1.58
80422;BMP280;69763;50.182;9.144;2023-11-22T04:41:37;100993.19;;;-1.62
80422;BMP280;69763;50.182;9.144;2023-11-22T04:44:03;100998.97;;;-1.67
80422;BMP280;69763;50.182;9.144;2023-11-22T04:46:29;100998.28;;;-1.71
80422;BMP280;69763;50.182;9.144;2023-11-22T04:48:54;100990.34;;;-1.75
80422;BMP280;69763;50.182;9.144;2023-11-22T04:51:19;100995.38;;;-1.84
80422;BMP280;69763;50.182;9.144;2023-11-22T04:53:45;100990.50;;;-1.89
80422;BMP280;69763;50.182;9.144;2023-11-22T04:56:11;100997.38;;;-1.95
80422;BMP280;69763;50.182;9.144;2023-11-22T04:58:37;100994.78;;;-1.98
80422;BMP280;69763;50.182;9.144;2023-11-22T05:01:02;100990.94;;;-1.94
80422;BMP280;69763;50.182;9.144;2023-11-22T05:03:28;100984.47;;;-1.93
80422;BMP280;69763;50.182;9.144;2023-11-22T05:05:53;100982.16;;;-1.91
80422;BMP280;69763;50.182;9.144;2023-11-22T05:08:18;100985.66;;;-1.97
80422;BMP280;69763;50.182;9.144;2023-11-22T05:10:44;100987.25;;;-2.04
80422;BMP280;69763;50.182;9.144;2023-11-22T05:13:10;100999.47;;;-2.10
80422;BMP280;69763;50.182;9.144;2023-11-22T05:15:36;101001.34;;;-2.07
80422;BMP280;69763;50.182;9.144;2023-11-22T05:18:02;101001.19;;;-1.96
80422;BMP280;69763;50.182;9.144;2023-11-22T05:20:27;100999.97;;;-1.88
80422;BMP280;69763;50.182;9.144;2023-11-22T05:22:53;101002.84;;;-1.72
80422;BMP280;69763;50.182;9.144;2023-11-22T05:25:18;101012.94;;;-1.59
80422;BMP280;69763;50.182;9.144;2023-11-22T05:27:43;101008.22;;;-1.48
80422;BMP280;69763;50.182;9.144;2023-11-22T05:30:11;100997.47;;;-1.41
80422;BMP280;69763;50.182;9.144;2023-11-22T05:32:36;101007.63;;;-1.33
80422;BMP280;69763;50.182;9.144;2023-11-22T05:35:02;101007.94;;;-1.27
80422;BMP280;69763;50.182;9.144;2023-11-22T05:37:27;101017.38;;;-1.22
80422;BMP280;69763;50.182;9.144;2023-11-22T05:39:53;101021.47;;;-1.14
80422;BMP280;69763;50.182;9.144;2023-11-22T05:42:18;101026.34;;;-1.09
80422;BMP280;69763;50.182;9.144;2023-11-22T05:44:43;101016.41;;;-1.05
80422;BMP280;69763;50.182;9.144;2023-11-22T05:47:10;101020.75;;;-0.91
80422;BMP280;69763;50.182;9.144;2023-11-22T05:49:35;101024.84;;;-0.87
80422;BMP280;69763;50.182;9.144;2023-11-22T05:52:01;101022.56;;;-0.85
80422;BMP280;69763;50.182;9.144;2023-11-22T05:54:26;101023.25;;;-0.81
80422;BMP280;69763;50.182;9.144;2023-11-22T05:56:51;101038.78;;;-0.76
80422;BMP280;69763;50.182;9.144;2023-11-22T05:59:17;101036.13;;;-0.76
80422;BMP280;69763;50.182;9.144;2023-11-22T06:01:42;101035.72;;;-0.74
80422;BMP280;69763;50.182;9.144;2023-11-22T06:04:09;101039.47;;;-0.72
80422;BMP280;69763;50.182;9.144;2023-11-22T06:06:34;101058.47;;;-0.70
80422;BMP280;69763;50.182;9.144;2023-11-22T06:09:00;101062.97;;;-0.67
80422;BMP280;69763;50.182;9.144;2023-11-22T06:11:25;101062.56;;;-0.65
80422;BMP280;69763;50.182;9.144;2023-11-22T06:13:51;101072.00;;;-0.60
80422;BMP280;69763;50.182;9.144;2023-11-22T06:16:16;101085.63;;;-0.55
80422;BMP280;69763;50.182;9.144;2023-11-22T06:18:41;101078.38;;;-0.54
80422;BMP280;69763;50.182;9.144;2023-11-22T06:21:08;101088.63;;;-0.53
80422;BMP280;69763;50.182;9.144;2023-11-22T06:23:33;101086.38;;;-0.54
80422;BMP280;69763;50.182;9.144;2023-11-22T06:25:59;101083.25;;;-0.49
80422;BMP280;69763;50.182;9.144;2023-11-22T06:28:24;101080.84;;;-0.44
80422;BMP280;69763;50.182;9.144;2023-11-22T06:30:50;101087.28;;;-0.41
80422;BMP280;69763;50.182;9.144;2023-11-22T06:33:15;101080.34;;;-0.35
80422;BMP280;69763;50.182;9.144;2023-11-22T06:35:40;101082.19;;;-0.32
80422;BMP280;69763;50.182;9.144;2023-11-22T06:38:07;101085.97;;;-0.29
80422;BMP280;69763;50.182;9.144;2023-11-22T06:40:32;101080.22;;;-0.28
80422;BMP280;69763;50.182;9.144;2023-11-22T06:42:58;101086.72;;;-0.29
80422;BMP280;69763;50.182;9.144;2023-11-22T06:45:23;101102.19;;;-0.20
80422;BMP280;69763;50.182;9.144;2023-11-22T06:47:48;101101.03;;;-0.19
80422;BMP280;69763;50.182;9.144;2023-11-22T06:50:14;101105.22;;;-0.18
80422;BMP280;69763;50.182;9.144;2023-11-22T06:52:40;101109.84;;;-0.22
80422;BMP280;69763;50.182;9.144;2023-11-22T06:55:08;101114.13;;;-0.28
80422;BMP280;69763;50.182;9.144;2023-11-22T06:57:33;101122.88;;;-0.28
80422;BMP280;69763;50.182;9.144;2023-11-22T06:59:59;101125.47;;;-0.24
80422;BMP280;69763;50.182;9.144;2023-11-22T07:02:24;101135.28;;;-0.18
80422;BMP280;69763;50.182;9.144;2023-11-22T07:04:50;101131.31;;;-0.10
80422;BMP280;69763;50.182;9.144;2023-11-22T07:07:15;101117.59;;;-0.08
80422;BMP280;69763;50.182;9.144;2023-11-22T07:09:42;101132.72;;;-0.02
80422;BMP280;69763;50.182;9.144;2023-11-22T07:12:08;101135.31;;;0.02
80422;BMP280;69763;50.182;9.144;2023-11-22T07:14:34;101126.50;;;0.05
80422;BMP280;69763;50.182;9.144;2023-11-22T07:16:59;101133.34;;;0.06
80422;BMP280;69763;50.182;9.144;2023-11-22T07:19:25;101135.19;;;0.09
80422;BMP280;69763;50.182;9.144;2023-11-22T07:21:50;101121.84;;;0.09
80422;BMP280;69763;50.182;9.144;2023-11-22T07:24:15;101129.84;;;0.09
80422;BMP280;69763;50.182;9.144;2023-11-22T07:26:41;101128.69;;;0.10
80422;BMP280;69763;50.182;9.144;2023-11-22T07:29:07;101118.78;;;0.11
80422;BMP280;69763;50.182;9.144;2023-11-22T07:31:33;101126.78;;;0.11
80422;BMP280;69763;50.182;9.144;2023-11-22T07:33:58;101137.44;;;0.11
80422;BMP280;69763;50.182;9.144;2023-11-22T07:36:24;101127.88;;;0.13
80422;BMP280;69763;50.182;9.144;2023-11-22T07:38:49;101133.56;;;0.15
80422;BMP280;69763;50.182;9.144;2023-11-22T07:41:14;101139.22;;;0.17
80422;BMP280;69763;50.182;9.144;2023-11-22T07:43:40;101144.84;;;0.23
80422;BMP280;69763;50.182;9.144;2023-11-22T07:46:08;101145.13;;;0.28
80422;BMP280;69763;50.182;9.144;2023-11-22T07:48:33;101135.22;;;0.29
80422;BMP280;69763;50.182;9.144;2023-11-22T07:50:59;101140.69;;;0.22
80422;BMP280;69763;50.182;9.144;2023-11-22T07:53:24;101133.97;;;0.14
80422;BMP280;69763;50.182;9.144;2023-11-22T07:55:49;101131.84;;;0.05
80422;BMP280;69763;50.182;9.144;2023-11-22T07:58:15;101132.00;;;-0.06
80422;BMP280;69763;50.182;9.144;2023-11-22T08:00:40;101146.56;;;-0.10
80422;BMP280;69763;50.182;9.144;2023-11-22T08:03:07;101141.22;;;-0.10
80422;BMP280;69763;50.182;9.144;2023-11-22T08:05:32;101141.06;;;0.00
80422;BMP280;69763;50.182;9.144;2023-11-22T08:07:58;101143.06;;;0.16
80422;BMP280;69763;50.182;9.144;2023-11-22T08:10:23;101139.81;;;0.28
80422;BMP280;69763;50.182;9.144;2023-11-22T08:12:48;101153.41;;;0.34
80422;BMP280;69763;50.182;9.144;2023-11-22T08:15:15;101151.41;;;0.38
80422;BMP280;69763;50.182;9.144;2023-11-22T08:17:42;101146.09;;;0.38
80422;BMP280;69763;50.182;9.144;2023-11-22T08:20:09;101143.81;;;0.36
80422;BMP280;69763;50.182;9.144;2023-11-22T08:22:34;101164.28;;;0.43
80422;BMP280;69763;50.182;9.144;2023-11-22T08:25:00;101155.28;;;0.57
80422;BMP280;69763;50.182;9.144;2023-11-22T08:27:25;101153.47;;;0.70
80422;BMP280;69763;50.182;9.144;2023-11-22T08:29:51;101157.16;;;0.76
80422;BMP280;69763;50.182;9.144;2023-11-22T08:32:16;101154.78;;;0.82
80422;BMP280;69763;50.182;9.144;2023-11-22T08:34:41;101152.66;;;0.93
80422;BMP280;69763;50.182;9.144;2023-11-22T08:37:08;101141.97;;;0.93
80422;BMP280;69763;50.182;9.144;2023-11-22T08:39:33;101140.72;;;0.97
80422;BMP280;69763;50.182;9.144;2023-11-22T08:41:59;101127.69;;;0.99
80422;BMP280;69763;50.182;9.144;2023-11-22T08:44:24;101136.38;;;1.03
80422;BMP280;69763;50.182;9.144;2023-11-22T08:46:50;101142.16;;;1.18
80422;BMP280;69763;50.182;9.144;2023-11-22T08:49:15;101156.03;;;1.29
80422;BMP280;69763;50.182;9.144;2023-11-22T08:51:40;101156.63;;;1.37
80422;BMP280;69763;50.182;9.144;2023-11-22T08:54:07;101156.56;;;1.40
80422;BMP280;69763;50.182;9.144;2023-11-22T08:56:33;101171.50;;;1.38
80422;BMP280;69763;50.182;9.144;2023-11-22T08:58:58;101170.25;;;1.42
80422;BMP280;69763;50.182;9.144;2023-11-22T09:01:23;101170.16;;;1.46
80422;BMP280;69763;50.182;9.144;2023-11-22T09:03:49;101168.00;;;1.57
80422;BMP280;69763;50.182;9.144;2023-11-22T09:06:14;101169.72;;;1.64
80422;BMP280;69763;50.182;9.144;2023-11-22T09:08:39;101160.38;;;1.72
80422;BMP280;69763;50.182;9.144;2023-11-22T09:11:06;101170.13;;;1.78
80422;BMP280;69763;50.182;9.144;2023-11-22T09:13:32;101171.63;;;1.80
80422;BMP280;69763;50.182;9.144;2023-11-22T09:15:57;101175.56;;;1.91
80422;BMP280;69763;50.182;9.144;2023-11-22T09:18:23;101173.13;;;1.97
80422;BMP280;69763;50.182;9.144;2023-11-22T09:20:48;101164.34;;;1.96
80422;BMP280;69763;50.182;9.144;2023-11-22T09:23:13;101169.03;;;2.08
80422;BMP280;69763;50.182;9.144;2023-11-22T09:25:39;101187.41;;;2.06
80422;BMP280;69763;50.182;9.144;2023-11-22T09:28:06;101200.88;;;2.03
80422;BMP280;69763;50.182;9.144;2023-11-22T09:30:32;101202.38;;;2.04
80422;BMP280;69763;50.182;9.144;2023-11-22T09:32:57;101197.31;;;1.93
80422;BMP280;69763;50.182;9.144;2023-11-22T09:35:22;101208.06;;;1.90
80422;BMP280;69763;50.182;9.144;2023-11-22T09:37:48;101215.59;;;1.95
80422;BMP280;69763;50.182;9.144;2023-11-22T09:40:16;101217.00;;;1.99
80422;BMP280;69763;50.182;9.144;2023-11-22T09:42:42;101214.66;;;2.01
80422;BMP280;69763;50.182;9.144;2023-11-22T09:45:10;101227.53;;;2.06
80422;BMP280;69763;50.182;9.144;2023-11-22T09:47:35;101219.13;;;2.21
80422;BMP280;69763;50.182;9.144;2023-11-22T09:50:02;101216.44;;;2.37
80422;BMP280;69763;50.182;9.144;2023-11-22T09:52:27;101209.38;;;2.43
80422;BMP280;69763;50.182;9.144;2023-11-22T09:54:54;101197.00;;;2.49
80422;BMP280;69763;50.182;9.144;2023-11-22T09:57:20;101189.06;;;2.45
80422;BMP280;69763;50.182;9.144;2023-11-22T09:59:49;101198.50;;;2.50
80422;BMP280;69763;50.182;9.144;2023-11-22T10:02:17;101204.41;;;2.58
80422;BMP280;69763;50.182;9.144;2023-11-22T10:04:42;101194.78;;;2.60
80422;BMP280;69763;50.182;9.144;2023-11-22T10:07:07;101191.00;;;2.58
80422;BMP280;69763;50.182;9.144;2023-11-22T10:09:33;101195.63;;;2.57
80422;BMP280;69763;50.182;9.144;2023-11-22T10:12:01;101201.09;;;2.54
80422;BMP280;69763;50.182;9.144;2023-11-22T10:14:26;101211.50;;;2.77
80422;BMP280;69763;50.182;9.144;2023-11-22T10:16:59;101222.88;;;2.94
80422;BMP280;69763;50.182;9.144;2023-11-22T10:19:26;101240.09;;;2.80
80422;BMP280;69763;50.182;9.144;2023-11-22T10:22:02;101233.72;;;2.90
80422;BMP280;69763;50.182;9.144;2023-11-22T10:24:30;101224.72;;;3.09
80422;BMP280;69763;50.182;9.144;2023-11-22T10:26:55;101215.97;;;3.09
80422;BMP280;69763;50.182;9.144;2023-11-22T10:29:21;101213.69;;;3.33
80422;BMP280;69763;50.182;9.144;2023-11-22T10:31:46;101219.34;;;3.60
80422;BMP280;69763;50.182;9.144;2023-11-22T10:34:11;101232.34;;;3.62
80422;BMP280;69763;50.182;9.144;2023-11-22T10:36:38;101227.00;;;3.36
80422;BMP280;69763;50.182;9.144;2023-11-22T10:39:07;101217.13;;;3.20
80422;BMP280;69763;50.182;9.144;2023-11-22T10:41:37;101214.75;;;3.10
80422;BMP280;69763;50.182;9.144;2023-11-22T10:44:02;101219.16;;;3.04
80422;BMP280;69763;50.182;9.144;2023-11-22T10:46:29;101226.97;;;2.98
80422;BMP280;69763;50.182;9.144;2023-11-22T10:48:55;101229.88;;;2.91
80422;BMP280;69763;50.182;9.144;2023-11-22T10:51:21;101229.97;;;2.88
80422;BMP280;69763;50.182;9.144;2023-11-22T10:53:49;101240.44;;;2.82
80422;BMP280;69763;50.182;9.144;2023-11-22T10:56:17;101237.19;;;2.74
80422;BMP280;69763;50.182;9.144;2023-11-22T10:58:47;101236.88;;;2.72
80422;BMP280;69763;50.182;9.144;2023-11-22T11:01:15;101240.94;;;2.64
80422;BMP280;69763;50.182;9.144;2023-11-22T11:03:43;101242.78;;;2.67
80422;BMP280;69763;50.182;9.144;2023-11-22T11:06:11;101246.19;;;2.68
80422;BMP280;69763;50.182;9.144;2023-11-22T11:08:37;101257.84;;;2.61
80422;BMP280;69763;50.182;9.144;2023-11-22T11:11:04;101263.44;;;2.67
80422;BMP280;69763;50.182;9.144;2023-11-22T11:13:30;101273.19;;;2.73
80422;BMP280;69763;50.182;9.144;2023-11-22T11:15:56;101276.63;;;2.74
80422;BMP280;69763;50.182;9.144;2023-11-22T11:18:22;101277.59;;;2.80
80422;BMP280;69763;50.182;9.144;2023-11-22T11:20:48;101281.78;;;2.81
80422;BMP280;69763;50.182;9.144;2023-11-22T11:23:14;101275.56;;;2.71
80422;BMP280;69763;50.182;9.144;2023-11-22T11:25:39;101275.13;;;2.73
80422;BMP280;69763;50.182;9.144;2023-11-22T11:28:10;101283.59;;;2.71
80422;BMP280;69763;50.182;9.144;2023-11-22T11:30:43;101290.72;;;2.62
80422;BMP280;69763;50.182;9.144;2023-11-22T11:33:08;101296.59;;;2.57
80422;BMP280;69763;50.182;9.144;2023-11-22T11:35:38;101293.28;;;2.53
80422;BMP280;69763;50.182;9.144;2023-11-22T11:38:03;101292.34;;;2.43
80422;BMP280;69763;50.182;9.144;2023-11-22T11:40:31;101290.00;;;2.45
80422;BMP280;69763;50.182;9.144;2023-11-22T11:42:56;101301.78;;;2.64
80422;BMP280;69763;50.182;9.144;2023-11-22T11:45:23;101311.44;;;2.74
80422;BMP280;69763;50.182;9.144;2023-11-22T11:47:49;101305.03;;;2.84
80422;BMP280;69763;50.182;9.144;2023-11-22T11:50:14;101301.53;;;2.87
80422;BMP280;69763;50.182;9.144;2023-11-22T11:52:40;101301.53;;;2.87
80422;BMP280;69763;50.182;9.144;2023-11-22T11:55:06;101299.94;;;2.90
80422;BMP280;69763;50.182;9.144;2023-11-22T11:57:32;101300.16;;;2.95
80422;BMP280;69763;50.182;9.144;2023-11-22T11:59:57;101295.00;;;2.88
80422;BMP280;69763;50.182;9.144;2023-11-22T12:02:24;101294.28;;;3.00
80422;BMP280;69763;50.182;9.144;2023-11-22T12:04:49;101295.38;;;3.15
80422;BMP280;69763;50.182;9.144;2023-11-22T12:07:15;101283.59;;;3.13
80422;BMP280;69763;50.182;9.144;2023-11-22T12:09:40;101272.97;;;3.22
80422;BMP280;69763;50.182;9.144;2023-11-22T12:12:06;101270.28;;;3.22
80422;BMP280;69763;50.182;9.144;2023-11-22T12:14:32;101274.16;;;3.08
80422;BMP280;69763;50.182;9.144;2023-11-22T12:16:57;101261.88;;;2.95
80422;BMP280;69763;50.182;9.144;2023-11-22T12:19:26;101252.03;;;2.92
80422;BMP280;69763;50.182;9.144;2023-11-22T12:21:51;101256.00;;;2.87
80422;BMP280;69763;50.182;9.144;2023-11-22T12:24:17;101247.31;;;2.83
80422;BMP280;69763;50.182;9.144;2023-11-22T12:26:44;101252.63;;;2.70
80422;BMP280;69763;50.182;9.144;2023-11-22T12:29:11;101259.06;;;2.73
80422;BMP280;69763;50.182;9.144;2023-11-22T12:31:43;101260.09;;;2.63
80422;BMP280;69763;50.182;9.144;2023-11-22T12:34:09;101260.19;;;2.59
80422;BMP280;69763;50.182;9.144;2023-11-22T12:36:36;101260.44;;;2.77
80422;BMP280;69763;50.182;9.144;2023-11-22T12:39:01;101262.78;;;2.75
80422;BMP280;69763;50.182;9.144;2023-11-22T12:41:27;101265.25;;;2.70
80422;BMP280;69763;50.182;9.144;2023-11-22T12:44:02;101253.16;;;2.65
80422;BMP280;69763;50.182;9.144;2023-11-22T12:46:27;101256.25;;;2.64
80422;BMP280;69763;50.182;9.144;2023-11-22T12:49:04;101268.13;;;2.63
80422;BMP280;69763;50.182;9.144;2023-11-22T12:51:30;101267.75;;;2.48
80422;BMP280;69763;50.182;9.144;2023-11-22T12:53:57;101241.75;;;2.48
80422;BMP280;69763;50.182;9.144;2023-11-22T12:56:22;101235.06;;;2.69
80422;BMP280;69763;50.182;9.144;2023-11-22T12:58:47;101249.97;;;2.83
80422;BMP280;69763;50.182;9.144;2023-11-22T13:01:13;101251.06;;;2.86
80422;BMP280;69763;50.182;9.144;2023-11-22T13:03:38;101244.28;;;2.81
80422;BMP280;69763;50.182;9.144;2023-11-22T13:06:03;101227.06;;;2.95
80422;BMP280;69763;50.182;9.144;2023-11-22T13:08:29;101231.38;;;3.05
80422;BMP280;69763;50.182;9.144;2023-11-22T13:10:56;101229.00;;;2.94
80422;BMP280;69763;50.182;9.144;2023-11-22T13:13:21;101230.38;;;2.86
80422;BMP280;69763;50.182;9.144;2023-11-22T13:15:46;101239.84;;;3.03
80422;BMP280;69763;50.182;9.144;2023-11-22T13:18:12;101233.53;;;3.23
80422;BMP280;69763;50.182;9.144;2023-11-22T13:20:37;101215.50;;;3.36
80422;BMP280;69763;50.182;9.144;2023-11-22T13:23:03;101211.97;;;3.51
80422;BMP280;69763;50.182;9.144;2023-11-22T13:25:28;101198.22;;;3.62
80422;BMP280;69763;50.182;9.144;2023-11-22T13:27:55;101199.94;;;3.69
80422;BMP280;69763;50.182;9.144;2023-11-22T13:30:20;101198.00;;;3.69
80422;BMP280;69763;50.182;9.144;2023-11-22T13:32:45;101197.13;;;3.72
80422;BMP280;69763;50.182;9.144;2023-11-22T13:35:11;101196.50;;;3.68
80422;BMP280;69763;50.182;9.144;2023-11-22T13:37:36;101197.16;;;3.60
80422;BMP280;69763;50.182;9.144;2023-11-22T13:40:02;101206.28;;;3.49
80422;BMP280;69763;50.182;9.144;2023-11-22T13:42:28;101199.84;;;3.34
80422;BMP280;69763;50.182;9.144;2023-11-22T13:44:54;101192.56;;;3.22
80422;BMP280;69763;50.182;9.144;2023-11-22T13:47:20;101179.41;;;3.15
80422;BMP280;69763;50.182;9.144;2023-11-22T13:49:45;101188.72;;;3.10
80422;BMP280;69763;50.182;9.144;2023-11-22T13:52:10;101200.31;;;3.07
80422;BMP280;69763;50.182;9.144;2023-11-22T13:54:36;101209.09;;;3.08
80422;BMP280;69763;50.182;9.144;2023-11-22T13:57:01;101218.94;;;3.11